createdAt,value
2023-08-07T00:01:54.436Z,100.00
2023-08-07T00:04:21.069Z,100.00
2023-08-07T00:06:47.473Z,100.00
2023-08-07T00:09:13.977Z,100.00
2023-08-07T00:11:40.359Z,100.00
2023-08-07T00:14:06.826Z,100.00
2023-08-07T00:16:33.317Z,100.00
2023-08-07T00:18:59.862Z,100.00
2023-08-07T00:21:26.329Z,100.00
2023-08-07T00:23:52.812Z,100.00
2023-08-07T00:26:19.309Z,100.00
2023-08-07T00:28:45.889Z,100.00
2023-08-07T00:31:13.509Z,100.00
2023-08-07T00:33:40.163Z,100.00
2023-08-07T00:36:06.603Z,100.00
2023-08-07T00:38:33.035Z,100.00
2023-08-07T00:41:00.922Z,100.00
2023-08-07T00:43:27.546Z,100.00
2023-08-07T00:45:54.478Z,100.00
2023-08-07T00:48:21.257Z,100.00
2023-08-07T00:50:50.065Z,100.00
2023-08-07T00:53:16.786Z,100.00
2023-08-07T00:55:43.858Z,100.00
2023-08-07T00:58:10.415Z,100.00
2023-08-07T01:00:37.113Z,100.00
2023-08-07T01:03:08.143Z,100.00
2023-08-07T01:05:35.310Z,100.00
2023-08-07T01:08:03.856Z,100.00
2023-08-07T01:10:51.157Z,100.00
2023-08-07T01:13:48.240Z,100.00
2023-08-07T01:16:27.346Z,100.00
2023-08-07T01:18:55.773Z,100.00
2023-08-07T01:21:22.487Z,100.00
2023-08-07T01:23:49.281Z,100.00
2023-08-07T01:26:20.462Z,100.00
2023-08-07T01:29:12.819Z,100.00
2023-08-07T01:31:42.958Z,100.00
2023-08-07T01:34:13.187Z,100.00
2023-08-07T01:36:41.039Z,100.00
2023-08-07T01:39:09.472Z,100.00
2023-08-07T01:41:37.082Z,100.00
2023-08-07T01:44:05.140Z,100.00
2023-08-07T01:46:31.820Z,100.00
2023-08-07T01:48:58.290Z,100.00
2023-08-07T01:51:24.792Z,100.00
2023-08-07T01:53:51.248Z,100.00
2023-08-07T01:56:17.685Z,100.00
2023-08-07T01:58:44.164Z,100.00
2023-08-07T02:01:10.592Z,100.00
2023-08-07T02:03:37.096Z,100.00
2023-08-07T02:06:03.952Z,100.00
2023-08-07T02:08:30.395Z,100.00
2023-08-07T02:10:56.836Z,100.00
2023-08-07T02:13:23.597Z,100.00
2023-08-07T02:15:49.997Z,100.00
2023-08-07T02:18:16.418Z,100.00
2023-08-07T02:20:42.862Z,100.00
2023-08-07T02:23:09.362Z,100.00
2023-08-07T02:25:35.876Z,100.00
2023-08-07T02:28:02.335Z,100.00
2023-08-07T02:30:28.780Z,100.00
2023-08-07T02:32:55.249Z,100.00
2023-08-07T02:35:21.797Z,100.00
2023-08-07T02:37:48.249Z,100.00
2023-08-07T02:40:16.489Z,100.00
2023-08-07T02:42:43.461Z,100.00
2023-08-07T02:45:10.288Z,100.00
2023-08-07T02:47:36.887Z,100.00
2023-08-07T02:50:03.632Z,100.00
2023-08-07T02:52:30.809Z,100.00
2023-08-07T02:54:57.245Z,100.00
2023-08-07T02:57:23.662Z,100.00
2023-08-07T02:59:50.069Z,100.00
2023-08-07T03:02:16.502Z,100.00
2023-08-07T03:04:42.948Z,100.00
2023-08-07T03:07:09.379Z,100.00
2023-08-07T03:09:35.822Z,100.00
2023-08-07T03:12:04.674Z,100.00
2023-08-07T03:14:32.695Z,100.00
2023-08-07T03:16:59.112Z,100.00
2023-08-07T03:19:25.504Z,100.00
2023-08-07T03:21:51.918Z,100.00
2023-08-07T03:24:18.493Z,100.00
2023-08-07T03:26:45.354Z,100.00
2023-08-07T03:29:11.920Z,100.00
2023-08-07T03:31:38.487Z,100.00
2023-08-07T03:34:08.017Z,100.00
2023-08-07T03:36:34.450Z,100.00
2023-08-07T03:39:00.998Z,100.00
2023-08-07T03:41:27.880Z,100.00
2023-08-07T03:43:54.367Z,100.00
2023-08-07T03:46:20.748Z,100.00
2023-08-07T03:48:47.214Z,100.00
2023-08-07T03:51:15.759Z,100.00
2023-08-07T03:53:42.155Z,100.00
2023-08-07T03:56:08.591Z,100.00
2023-08-07T03:58:35.020Z,100.00
2023-08-07T04:01:01.475Z,100.00
2023-08-07T04:03:27.959Z,100.00
2023-08-07T04:05:55.488Z,100.00
2023-08-07T04:08:23.422Z,100.00
2023-08-07T04:11:03.697Z,100.00
2023-08-07T04:13:31.162Z,100.00
2023-08-07T04:15:58.243Z,100.00
2023-08-07T04:18:25.001Z,100.00
2023-08-07T04:20:53.376Z,100.00
2023-08-07T04:23:20.055Z,100.00
2023-08-07T04:25:48.305Z,100.00
2023-08-07T04:28:15.031Z,100.00
2023-08-07T04:30:42.339Z,100.00
2023-08-07T04:33:09.160Z,100.00
2023-08-07T04:35:35.817Z,100.00
2023-08-07T04:38:03.309Z,100.00
2023-08-07T04:40:30.479Z,100.00
2023-08-07T04:42:57.579Z,100.00
2023-08-07T04:45:24.328Z,100.00
2023-08-07T04:47:50.923Z,100.00
2023-08-07T04:50:17.638Z,100.00
2023-08-07T04:52:44.224Z,100.00
2023-08-07T04:55:10.817Z,100.00
2023-08-07T04:57:37.251Z,100.00
2023-08-07T05:00:04.085Z,100.00
2023-08-07T05:02:30.596Z,100.00
2023-08-07T05:04:57.152Z,100.00
2023-08-07T05:07:23.635Z,100.00
2023-08-07T05:09:51.865Z,100.00
2023-08-07T05:12:18.305Z,100.00
2023-08-07T05:14:44.862Z,100.00
2023-08-07T05:17:11.324Z,100.00
2023-08-07T05:19:37.832Z,100.00
2023-08-07T05:22:05.009Z,100.00
2023-08-07T05:24:36.405Z,100.00
2023-08-07T05:27:02.883Z,100.00
2023-08-07T05:29:29.341Z,100.00
2023-08-07T05:31:56.063Z,100.00
2023-08-07T05:34:22.645Z,100.00
2023-08-07T05:36:50.120Z,100.00
2023-08-07T05:39:16.520Z,100.00
2023-08-07T05:41:43.100Z,100.00
2023-08-07T05:44:12.619Z,100.00
2023-08-07T05:46:39.271Z,100.00
2023-08-07T05:49:06.438Z,100.00
2023-08-07T05:51:32.851Z,100.00
2023-08-07T05:54:00.082Z,100.00
2023-08-07T05:56:26.851Z,100.00
2023-08-07T05:58:53.299Z,100.00
2023-08-07T06:01:19.937Z,100.00
2023-08-07T06:03:46.580Z,100.00
2023-08-07T06:06:13.550Z,100.00
2023-08-07T06:08:40.901Z,100.00
2023-08-07T06:11:09.469Z,100.00
2023-08-07T06:13:36.945Z,100.00
2023-08-07T06:16:03.598Z,100.00
2023-08-07T06:18:31.013Z,100.00
2023-08-07T06:20:57.617Z,100.00
2023-08-07T06:23:24.573Z,100.00
2023-08-07T06:25:52.693Z,100.00
2023-08-07T06:28:22.701Z,100.00
2023-08-07T06:30:49.719Z,100.00
2023-08-07T06:33:16.123Z,100.00
2023-08-07T06:35:43.768Z,100.00
2023-08-07T06:38:10.755Z,100.00
2023-08-07T06:40:38.766Z,100.00
2023-08-07T06:43:05.292Z,100.00
2023-08-07T06:45:31.731Z,100.00
2023-08-07T06:47:58.227Z,100.00
2023-08-07T06:50:25.331Z,100.00
2023-08-07T06:52:52.159Z,100.00
2023-08-07T06:55:19.887Z,100.00
2023-08-07T06:57:46.411Z,100.00
2023-08-07T07:00:13.286Z,100.00
2023-08-07T07:02:39.813Z,100.00
2023-08-07T07:05:06.533Z,100.00
2023-08-07T07:07:33.073Z,100.00
2023-08-07T07:10:01.577Z,100.00
2023-08-07T07:12:28.667Z,100.00
2023-08-07T07:14:55.258Z,100.00
2023-08-07T07:17:22.140Z,100.00
2023-08-07T07:19:48.609Z,100.00
2023-08-07T07:22:15.108Z,100.00
2023-08-07T07:24:41.632Z,100.00
2023-08-07T07:27:08.148Z,100.00
2023-08-07T07:29:34.539Z,100.00
2023-08-07T07:32:01.209Z,100.00
2023-08-07T07:34:28.006Z,100.00
2023-08-07T07:36:55.173Z,100.00
2023-08-07T07:39:22.049Z,100.00
2023-08-07T07:41:48.614Z,100.00
2023-08-07T07:44:15.128Z,100.00
2023-08-07T07:46:41.529Z,100.00
2023-08-07T07:49:07.940Z,100.00
2023-08-07T07:51:36.246Z,100.00
2023-08-07T07:54:14.724Z,100.00
2023-08-07T07:56:42.241Z,100.00
2023-08-07T07:59:09.573Z,100.00
2023-08-07T08:01:36.793Z,100.00
2023-08-07T08:04:03.487Z,100.00
2023-08-07T08:06:31.921Z,100.00
2023-08-07T08:08:58.817Z,100.00
2023-08-07T08:11:25.547Z,100.00
2023-08-07T08:13:52.475Z,100.00
2023-08-07T08:16:19.061Z,100.00
2023-08-07T08:18:45.611Z,100.00
2023-08-07T08:21:12.134Z,100.00
2023-08-07T08:23:38.639Z,100.00
2023-08-07T08:26:05.228Z,100.00
2023-08-07T08:28:31.893Z,100.00
2023-08-07T08:30:58.518Z,100.00
2023-08-07T08:33:24.976Z,100.00
2023-08-07T08:35:51.459Z,100.00
2023-08-07T08:38:20.946Z,100.00
2023-08-07T08:40:47.909Z,100.00
2023-08-07T08:43:14.887Z,100.00
2023-08-07T08:45:42.443Z,100.00
2023-08-07T08:48:15.212Z,100.00
2023-08-07T08:50:41.789Z,100.00
2023-08-07T08:53:10.712Z,100.00
2023-08-07T08:55:38.359Z,100.00
2023-08-07T08:58:05.125Z,100.00
2023-08-07T09:00:31.815Z,100.00
2023-08-07T09:02:58.450Z,100.00
2023-08-07T09:05:25.564Z,100.00
2023-08-07T09:07:52.051Z,100.00
2023-08-07T09:10:19.397Z,100.00
2023-08-07T09:13:06.260Z,100.00
2023-08-07T09:15:33.855Z,100.00
2023-08-07T09:18:00.577Z,100.00
2023-08-07T09:20:27.251Z,100.00
2023-08-07T09:22:53.736Z,100.00
2023-08-07T09:25:31.608Z,100.00
2023-08-07T09:27:58.521Z,100.00
2023-08-07T09:30:32.267Z,100.00
2023-08-07T09:33:00.272Z,100.00
2023-08-07T09:35:27.798Z,100.00
2023-08-07T09:37:54.412Z,100.00
2023-08-07T09:40:21.197Z,100.00
2023-08-07T09:42:53.434Z,100.00
2023-08-07T09:45:31.218Z,100.00
2023-08-07T09:48:05.222Z,100.00
2023-08-07T09:50:32.738Z,100.00
2023-08-07T09:52:59.997Z,100.00
2023-08-07T09:55:27.339Z,100.00
2023-08-07T09:57:54.263Z,100.00
2023-08-07T10:00:21.414Z,100.00
2023-08-07T10:02:49.681Z,100.00
2023-08-07T10:05:17.803Z,100.00
2023-08-07T10:07:44.552Z,100.00
2023-08-07T10:10:11.652Z,100.00
2023-08-07T10:12:39.478Z,100.00
2023-08-07T10:15:06.442Z,100.00
2023-08-07T10:17:34.022Z,96.78
2023-08-07T10:20:00.624Z,89.54
2023-08-07T10:22:30.660Z,88.44
2023-08-07T10:25:01.873Z,85.92
2023-08-07T10:27:32.639Z,82.93
2023-08-07T10:30:01.126Z,81.53
2023-08-07T10:32:28.911Z,79.43
2023-08-07T10:34:55.665Z,75.87
2023-08-07T10:37:55.315Z,75.81
2023-08-07T10:40:22.449Z,77.73
2023-08-07T10:43:15.060Z,72.20
2023-08-07T10:45:41.513Z,73.80
2023-08-07T10:48:19.371Z,70.20
2023-08-07T10:51:01.115Z,70.16
2023-08-07T10:53:37.456Z,70.60
2023-08-07T10:56:05.153Z,71.03
2023-08-07T10:58:35.856Z,75.61
2023-08-07T11:01:30.351Z,74.03
2023-08-07T11:03:59.375Z,75.61
2023-08-07T11:06:36.846Z,74.41
2023-08-07T11:09:05.969Z,70.04
2023-08-07T11:11:46.013Z,63.29
2023-08-07T11:14:20.063Z,64.02
2023-08-07T11:16:49.031Z,63.39
2023-08-07T11:19:17.836Z,64.21
2023-08-07T11:21:44.603Z,58.45
2023-08-07T11:24:15.128Z,57.72
2023-08-07T11:26:45.672Z,57.25
2023-08-07T11:29:16.461Z,54.68
2023-08-07T11:31:43.068Z,56.10
2023-08-07T11:34:11.894Z,52.89
2023-08-07T11:36:45.057Z,51.71
2023-08-07T11:39:12.740Z,52.45
2023-08-07T11:41:39.220Z,52.61
2023-08-07T11:44:08.507Z,52.43
2023-08-07T11:46:35.064Z,53.97
2023-08-07T11:49:01.913Z,55.91
2023-08-07T11:51:29.756Z,56.83
2023-08-07T11:53:59.154Z,57.99
2023-08-07T11:56:25.840Z,58.83
2023-08-07T11:58:54.923Z,58.42
2023-08-07T12:01:23.259Z,57.45
2023-08-07T12:03:58.347Z,59.50
2023-08-07T12:06:26.097Z,56.93
2023-08-07T12:08:56.851Z,53.86
2023-08-07T12:11:23.754Z,54.97
2023-08-07T12:13:51.150Z,53.77
2023-08-07T12:16:18.857Z,55.68
2023-08-07T12:18:50.490Z,54.42
2023-08-07T12:21:26.099Z,53.28
2023-08-07T12:23:55.967Z,52.63
2023-08-07T12:26:22.495Z,51.66
2023-08-07T12:28:49.286Z,51.30
2023-08-07T12:31:15.933Z,51.71
2023-08-07T12:33:51.212Z,51.96
2023-08-07T12:36:20.983Z,51.91
2023-08-07T12:38:47.871Z,53.09
2023-08-07T12:43:44.742Z,54.39
2023-08-07T12:48:45.617Z,51.65
2023-08-07T12:51:12.092Z,49.48
2023-08-07T12:53:38.517Z,49.83
2023-08-07T12:56:06.569Z,49.32
2023-08-07T12:58:32.998Z,51.49
2023-08-07T13:00:59.789Z,51.58
2023-08-07T13:03:26.369Z,50.03
2023-08-07T13:05:52.871Z,51.18
2023-08-07T13:08:19.565Z,50.66
2023-08-07T13:10:49.738Z,50.83
2023-08-07T13:13:16.876Z,50.52
2023-08-07T13:15:43.305Z,47.17
2023-08-07T13:18:09.818Z,46.12
2023-08-07T13:20:36.274Z,47.76
2023-08-07T13:23:03.186Z,50.13
2023-08-07T13:25:29.640Z,49.63
2023-08-07T13:27:56.117Z,49.90
2023-08-07T13:30:22.713Z,48.25
2023-08-07T13:32:49.171Z,48.88
2023-08-07T13:35:15.682Z,48.91
2023-08-07T13:37:42.170Z,47.30
2023-08-07T13:40:09.308Z,48.93
2023-08-07T13:42:35.829Z,48.99
2023-08-07T13:45:02.291Z,48.80
2023-08-07T13:47:29.107Z,47.74
2023-08-07T13:49:55.818Z,47.57
2023-08-07T13:52:22.581Z,48.10
2023-08-07T13:54:49.177Z,48.64
2023-08-07T13:57:16.199Z,46.20
2023-08-07T13:59:42.657Z,46.79
2023-08-07T14:02:09.799Z,46.08
2023-08-07T14:04:36.370Z,45.20
2023-08-07T14:07:03.718Z,44.15
2023-08-07T14:09:30.192Z,46.04
2023-08-07T14:11:58.099Z,43.45
2023-08-07T14:14:27.935Z,42.86
2023-08-07T14:16:57.636Z,44.65
2023-08-07T14:19:25.291Z,43.88
2023-08-07T14:21:52.554Z,44.75
2023-08-07T14:24:19.039Z,45.20
2023-08-07T14:26:45.492Z,46.21
2023-08-07T14:29:13.673Z,47.13
2023-08-07T14:31:40.900Z,47.24
2023-08-07T14:34:08.543Z,47.60
2023-08-07T14:36:34.987Z,46.67
2023-08-07T14:39:01.398Z,45.24
2023-08-07T14:41:28.003Z,47.69
2023-08-07T14:43:54.511Z,49.86
2023-08-07T14:46:21.431Z,51.85
2023-08-07T14:48:48.002Z,50.47
2023-08-07T14:51:14.691Z,51.17
2023-08-07T14:53:41.167Z,52.05
2023-08-07T14:56:10.703Z,53.64
2023-08-07T14:58:37.122Z,54.31
2023-08-07T15:01:04.668Z,56.24
2023-08-07T15:03:31.360Z,54.78
2023-08-07T15:05:58.863Z,54.08
2023-08-07T15:08:25.373Z,53.64
2023-08-07T15:10:54.710Z,54.36
2023-08-07T15:13:21.338Z,53.50
2023-08-07T15:15:47.824Z,54.48
2023-08-07T15:18:14.462Z,54.77
2023-08-07T15:20:41.477Z,55.13
2023-08-07T15:23:07.925Z,55.82
2023-08-07T15:25:34.337Z,55.85
2023-08-07T15:28:01.556Z,55.82
2023-08-07T15:30:29.284Z,56.45
2023-08-07T15:32:55.849Z,57.49
2023-08-07T15:35:22.354Z,57.77
2023-08-07T15:37:48.869Z,59.56
2023-08-07T15:40:15.324Z,59.51
2023-08-07T15:42:46.282Z,63.03
2023-08-07T15:45:13.851Z,73.82
2023-08-07T15:47:40.878Z,74.06
2023-08-07T15:50:08.020Z,76.04
2023-08-07T15:52:34.493Z,77.77
2023-08-07T15:55:00.927Z,78.11
2023-08-07T15:57:27.420Z,74.83
2023-08-07T15:59:53.848Z,72.81
2023-08-07T16:02:20.384Z,72.51
2023-08-07T16:04:46.891Z,69.66
2023-08-07T16:07:13.413Z,67.50
2023-08-07T16:09:39.813Z,67.58
2023-08-07T16:12:06.604Z,69.82
2023-08-07T16:14:35.839Z,69.67
2023-08-07T16:17:03.695Z,68.02
2023-08-07T16:19:30.149Z,65.26
2023-08-07T16:21:56.680Z,66.65
2023-08-07T16:24:23.116Z,65.90
2023-08-07T16:26:49.517Z,68.38
2023-08-07T16:29:15.962Z,66.14
2023-08-07T16:31:42.446Z,66.06
2023-08-07T16:34:09.601Z,66.69
2023-08-07T16:36:37.138Z,65.99
2023-08-07T16:39:03.808Z,66.90
2023-08-07T16:41:33.240Z,68.81
2023-08-07T16:43:59.643Z,67.78
2023-08-07T16:46:26.105Z,67.46
2023-08-07T16:48:52.556Z,69.33
2023-08-07T16:51:19.964Z,68.62
2023-08-07T16:53:49.648Z,66.28
2023-08-07T16:56:16.276Z,67.49
2023-08-07T16:58:45.468Z,67.85
2023-08-07T17:01:13.107Z,68.34
2023-08-07T17:03:39.690Z,68.12
2023-08-07T17:06:06.134Z,67.14
2023-08-07T17:08:33.531Z,67.29
2023-08-07T17:11:01.196Z,68.12
2023-08-07T17:13:27.669Z,67.09
2023-08-07T17:15:54.089Z,67.16
2023-08-07T17:18:20.558Z,66.22
2023-08-07T17:20:46.985Z,67.02
2023-08-07T17:23:13.474Z,65.98
2023-08-07T17:25:40.163Z,68.29
2023-08-07T17:28:07.306Z,69.54
2023-08-07T17:30:33.888Z,69.96
2023-08-07T17:33:00.967Z,69.88
2023-08-07T17:35:27.461Z,71.19
2023-08-07T17:37:53.926Z,70.98
2023-08-07T17:40:20.424Z,71.91
2023-08-07T17:42:46.799Z,71.65
2023-08-07T17:45:13.795Z,72.46
2023-08-07T17:47:42.348Z,73.02
2023-08-07T17:50:10.443Z,73.53
2023-08-07T17:52:40.345Z,72.91
2023-08-07T17:55:07.935Z,73.01
2023-08-07T17:57:34.484Z,74.47
2023-08-07T18:00:00.959Z,75.14
2023-08-07T18:02:27.630Z,74.06
2023-08-07T18:04:54.405Z,74.54
2023-08-07T18:07:20.919Z,74.43
2023-08-07T18:09:47.390Z,74.06
2023-08-07T18:12:14.013Z,75.39
2023-08-07T18:14:40.801Z,77.24
2023-08-07T18:17:09.396Z,76.13
2023-08-07T18:19:35.865Z,76.31
2023-08-07T18:22:02.342Z,74.23
2023-08-07T18:24:28.907Z,76.08
2023-08-07T18:26:55.388Z,76.42
2023-08-07T18:29:22.294Z,75.33
2023-08-07T18:31:49.895Z,74.52
2023-08-07T18:34:17.843Z,74.89
2023-08-07T18:36:45.300Z,76.08
2023-08-07T18:39:12.117Z,76.74
2023-08-07T18:41:38.606Z,75.60
2023-08-07T18:44:05.048Z,76.75
2023-08-07T18:46:31.646Z,76.34
2023-08-07T18:48:58.154Z,77.33
2023-08-07T18:51:24.694Z,79.09
2023-08-07T18:53:51.322Z,79.00
2023-08-07T18:56:17.954Z,80.06
2023-08-07T18:58:44.428Z,81.80
2023-08-07T19:01:11.082Z,81.14
2023-08-07T19:03:37.956Z,85.17
2023-08-07T19:06:06.507Z,87.41
2023-08-07T19:08:36.359Z,88.32
2023-08-07T19:11:02.857Z,90.38
2023-08-07T19:13:29.588Z,91.20
2023-08-07T19:15:56.900Z,90.75
2023-08-07T19:18:24.406Z,88.23
2023-08-07T19:20:50.886Z,87.68
2023-08-07T19:23:17.432Z,85.92
2023-08-07T19:25:44.075Z,86.39
2023-08-07T19:28:10.578Z,86.63
2023-08-07T19:30:37.006Z,87.81
2023-08-07T19:33:06.402Z,87.07
2023-08-07T19:35:32.968Z,90.15
2023-08-07T19:37:59.502Z,91.79
2023-08-07T19:40:27.072Z,92.78
2023-08-07T19:42:53.494Z,93.24
2023-08-07T19:45:20.493Z,93.40
2023-08-07T19:47:48.072Z,94.60
2023-08-07T19:50:15.349Z,94.39
2023-08-07T19:52:42.019Z,96.04
2023-08-07T19:55:09.113Z,96.83
2023-08-07T19:57:35.848Z,97.55
2023-08-07T20:00:02.742Z,98.26
2023-08-07T20:02:29.222Z,99.71
2023-08-07T20:04:55.726Z,100.00
2023-08-07T20:07:22.308Z,100.00
2023-08-07T20:09:49.041Z,100.00
2023-08-07T20:12:17.491Z,100.00
2023-08-07T20:14:44.036Z,100.00
2023-08-07T20:17:10.468Z,100.00
2023-08-07T20:19:36.871Z,100.00
2023-08-07T20:22:03.728Z,100.00
2023-08-07T20:24:30.360Z,100.00
2023-08-07T20:26:57.549Z,100.00
2023-08-07T20:29:25.252Z,100.00
2023-08-07T20:31:52.078Z,100.00
2023-08-07T20:34:18.597Z,100.00
2023-08-07T20:36:45.206Z,100.00
2023-08-07T20:39:13.860Z,100.00
2023-08-07T20:41:40.316Z,100.00
2023-08-07T20:44:06.732Z,100.00
2023-08-07T20:46:33.758Z,100.00
2023-08-07T20:49:00.289Z,100.00
2023-08-07T20:51:26.775Z,100.00
2023-08-07T20:53:53.220Z,100.00
2023-08-07T20:56:19.760Z,100.00
2023-08-07T20:58:46.172Z,100.00
2023-08-07T21:01:12.661Z,100.00
2023-08-07T21:03:39.280Z,100.00
2023-08-07T21:06:05.718Z,100.00
2023-08-07T21:08:32.195Z,100.00
2023-08-07T21:10:59.313Z,100.00
2023-08-07T21:13:25.757Z,100.00
2023-08-07T21:15:52.233Z,100.00
2023-08-07T21:18:18.718Z,100.00
2023-08-07T21:20:45.320Z,100.00
2023-08-07T21:23:16.188Z,100.00
2023-08-07T21:25:42.624Z,100.00
2023-08-07T21:28:10.458Z,100.00
2023-08-07T21:30:36.978Z,100.00
2023-08-07T21:33:03.945Z,100.00
2023-08-07T21:35:30.508Z,100.00
2023-08-07T21:37:56.943Z,100.00
2023-08-07T21:40:24.655Z,100.00
2023-08-07T21:42:51.099Z,100.00
2023-08-07T21:45:17.539Z,100.00
2023-08-07T21:47:45.383Z,100.00
2023-08-07T21:50:12.388Z,100.00
2023-08-07T21:52:39.260Z,100.00
2023-08-07T21:55:06.224Z,97.20
2023-08-07T21:57:33.965Z,94.72
2023-08-07T22:00:00.509Z,92.23
2023-08-07T22:02:27.229Z,91.07
2023-08-07T22:04:53.865Z,91.97
2023-08-07T22:07:23.106Z,92.84
2023-08-07T22:09:50.086Z,90.37
2023-08-07T22:12:16.466Z,89.50
2023-08-07T22:14:43.142Z,89.93
2023-08-07T22:17:09.794Z,93.07
2023-08-07T22:19:36.214Z,89.90
2023-08-07T22:22:02.724Z,91.89
2023-08-07T22:24:29.295Z,92.14
2023-08-07T22:26:55.764Z,94.38
2023-08-07T22:29:22.274Z,96.43
2023-08-07T22:31:48.991Z,97.81
2023-08-07T22:34:15.541Z,99.15
2023-08-07T22:36:42.035Z,100.00
2023-08-07T22:39:08.509Z,100.00
2023-08-07T22:41:35.052Z,98.04
2023-08-07T22:44:02.054Z,99.74
2023-08-07T22:46:28.561Z,100.00
2023-08-07T22:48:55.165Z,100.00
2023-08-07T22:51:21.748Z,100.00
2023-08-07T22:53:48.186Z,100.00
2023-08-07T22:56:14.743Z,100.00
2023-08-07T22:58:41.294Z,98.66
2023-08-07T23:01:08.229Z,98.09
2023-08-07T23:03:34.812Z,97.40
2023-08-07T23:06:01.277Z,94.52
2023-08-07T23:08:27.709Z,94.44
2023-08-07T23:10:54.281Z,94.43
2023-08-07T23:13:20.756Z,93.29
2023-08-07T23:15:48.105Z,92.50
2023-08-07T23:18:14.793Z,92.86
2023-08-07T23:20:41.272Z,92.29
2023-08-07T23:23:07.724Z,93.19
2023-08-07T23:25:34.196Z,93.19
2023-08-07T23:28:00.613Z,94.88
2023-08-07T23:30:27.104Z,96.59
2023-08-07T23:32:53.539Z,97.18
2023-08-07T23:35:20.062Z,98.58
2023-08-07T23:37:46.759Z,98.76
2023-08-07T23:40:13.408Z,100.00
2023-08-07T23:42:39.884Z,100.00
2023-08-07T23:45:06.942Z,100.00
2023-08-07T23:47:33.450Z,100.00
2023-08-07T23:50:00.002Z,100.00
2023-08-07T23:52:26.575Z,100.00
2023-08-07T23:54:53.039Z,100.00
2023-08-07T23:57:19.436Z,100.00
2023-08-07T23:59:45.885Z,100.00
